sensor_id;sensor_type;location;lat;lon;timestamp;pressure;altitude;pressure_sealevel;temperature;humidity
11499;BME280;5806;48.748;9.278;2024-02-26T00:00:48;99182.80;;;8.40;68.75
11499;BME280;5806;48.748;9.278;2024-02-26T00:03:15;99185.80;;;8.43;67.37
11499;BME280;5806;48.748;9.278;2024-02-26T00:05:43;99187.67;;;8.35;71.20
11499;BME280;5806;48.748;9.278;2024-02-26T00:08:10;99192.02;;;8.36;69.79
11499;BME280;5806;48.748;9.278;2024-02-26T00:10:37;99197.96;;;8.26;71.73
11499;BME280;5806;48.748;9.278;2024-02-26T00:13:05;99189.78;;;8.23;71.39
11499;BME280;5806;48.748;9.278;2024-02-26T00:15:32;99183.72;;;8.19;73.93
11499;BME280;5806;48.748;9.278;2024-02-26T00:18:01;99173.91;;;8.13;74.35
11499;BME280;5806;48.748;9.278;2024-02-26T00:20:29;99173.63;;;8.12;73.69
11499;BME280;5806;48.748;9.278;2024-02-26T00:22:56;99175.25;;;8.10;76.43
11499;BME280;5806;48.748;9.278;2024-02-26T00:25:24;99168.94;;;8.02;77.04
11499;BME280;5806;48.748;9.278;2024-02-26T00:27:51;99169.11;;;7.88;75.89
11499;BME280;5806;48.748;9.278;2024-02-26T00:30:18;99170.81;;;7.97;75.52
11499;BME280;5806;48.748;9.278;2024-02-26T00:32:46;99168.62;;;7.96;77.90
11499;BME280;5806;48.748;9.278;2024-02-26T00:35:13;99173.51;;;7.92;77.22
11499;BME280;5806;48.748;9.278;2024-02-26T00:37:41;99167.24;;;7.94;74.85
11499;BME280;5806;48.748;9.278;2024-02-26T00:40:10;99160.77;;;8.00;76.58
11499;BME280;5806;48.748;9.278;2024-02-26T00:42:38;99160.95;;;7.88;77.35
11499;BME280;5806;48.748;9.278;2024-02-26T00:45:05;99155.25;;;7.92;79.44
11499;BME280;5806;48.748;9.278;2024-02-26T00:47:33;99153.10;;;7.94;76.63
11499;BME280;5806;48.748;9.278;2024-02-26T00:50:00;99146.27;;;7.89;79.13
11499;BME280;5806;48.748;9.278;2024-02-26T00:52:28;99144.56;;;7.78;81.01
11499;BME280;5806;48.748;9.278;2024-02-26T00:54:56;99139.50;;;7.97;77.84
11499;BME280;5806;48.748;9.278;2024-02-26T00:57:23;99143.30;;;7.93;80.07
11499;BME280;5806;48.748;9.278;2024-02-26T00:59:50;99140.52;;;7.86;79.54
11499;BME280;5806;48.748;9.278;2024-02-26T01:02:18;99144.97;;;8.02;78.30
11499;BME280;5806;48.748;9.278;2024-02-26T01:04:45;99143.61;;;8.02;75.00
11499;BME280;5806;48.748;9.278;2024-02-26T01:07:13;99149.28;;;7.93;76.85
11499;BME280;5806;48.748;9.278;2024-02-26T01:09:40;99153.14;;;8.02;74.23
11499;BME280;5806;48.748;9.278;2024-02-26T01:12:08;99152.02;;;7.98;74.76
11499;BME280;5806;48.748;9.278;2024-02-26T01:14:35;99155.07;;;8.04;74.47
11499;BME280;5806;48.748;9.278;2024-02-26T01:17:02;99149.88;;;8.00;75.39
11499;BME280;5806;48.748;9.278;2024-02-26T01:19:30;99145.73;;;7.92;76.31
11499;BME280;5806;48.748;9.278;2024-02-26T01:21:57;99144.09;;;7.91;75.74
11499;BME280;5806;48.748;9.278;2024-02-26T01:24:25;99145.48;;;7.99;78.43
11499;BME280;5806;48.748;9.278;2024-02-26T01:26:52;99144.88;;;7.87;79.80
11499;BME280;5806;48.748;9.278;2024-02-26T01:29:20;99141.01;;;7.78;79.64
11499;BME280;5806;48.748;9.278;2024-02-26T01:31:47;99139.48;;;7.92;75.70
11499;BME280;5806;48.748;9.278;2024-02-26T01:34:14;99136.20;;;7.92;76.28
11499;BME280;5806;48.748;9.278;2024-02-26T01:36:44;99145.48;;;7.96;77.69
11499;BME280;5806;48.748;9.278;2024-02-26T01:39:11;99138.86;;;7.80;77.24
11499;BME280;5806;48.748;9.278;2024-02-26T01:41:39;99135.63;;;7.85;76.94
11499;BME280;5806;48.748;9.278;2024-02-26T01:44:07;99140.53;;;7.88;77.33
11499;BME280;5806;48.748;9.278;2024-02-26T01:46:35;99141.22;;;7.66;80.82
11499;BME280;5806;48.748;9.278;2024-02-26T01:49:03;99130.61;;;7.70;77.94
11499;BME280;5806;48.748;9.278;2024-02-26T01:51:32;99135.83;;;7.76;79.19
11499;BME280;5806;48.748;9.278;2024-02-26T01:54:02;99128.97;;;7.66;83.37
11499;BME280;5806;48.748;9.278;2024-02-26T01:56:31;99126.73;;;7.58;83.76
11499;BME280;5806;48.748;9.278;2024-02-26T01:58:59;99129.95;;;7.53;84.71
11499;BME280;5806;48.748;9.278;2024-02-26T02:01:30;99128.61;;;7.55;83.93
11499;BME280;5806;48.748;9.278;2024-02-26T02:03:59;99126.28;;;7.71;82.48
11499;BME280;5806;48.748;9.278;2024-02-26T02:06:27;99125.98;;;7.65;84.62
11499;BME280;5806;48.748;9.278;2024-02-26T02:08:56;99124.30;;;7.62;80.99
11499;BME280;5806;48.748;9.278;2024-02-26T02:11:23;99116.63;;;7.54;84.57
11499;BME280;5806;48.748;9.278;2024-02-26T02:13:51;99121.55;;;7.57;83.53
11499;BME280;5806;48.748;9.278;2024-02-26T02:16:18;99118.05;;;7.59;81.95
11499;BME280;5806;48.748;9.278;2024-02-26T02:18:46;99118.08;;;7.64;84.36
11499;BME280;5806;48.748;9.278;2024-02-26T02:21:13;99121.80;;;7.53;83.43
11499;BME280;5806;48.748;9.278;2024-02-26T02:23:41;99120.39;;;7.45;83.43
11499;BME280;5806;48.748;9.278;2024-02-26T02:26:10;99118.95;;;7.38;86.96
11499;BME280;5806;48.748;9.278;2024-02-26T02:28:37;99120.92;;;7.45;86.74
11499;BME280;5806;48.748;9.278;2024-02-26T02:31:07;99109.80;;;7.49;87.41
11499;BME280;5806;48.748;9.278;2024-02-26T02:33:35;99117.33;;;7.37;84.63
11499;BME280;5806;48.748;9.278;2024-02-26T02:36:02;99121.77;;;7.48;86.30
11499;BME280;5806;48.748;9.278;2024-02-26T02:38:30;99116.89;;;7.52;87.08
11499;BME280;5806;48.748;9.278;2024-02-26T02:40:59;99119.08;;;7.53;84.54
11499;BME280;5806;48.748;9.278;2024-02-26T02:43:27;99117.48;;;7.57;86.63
11499;BME280;5806;48.748;9.278;2024-02-26T02:45:54;99114.52;;;7.63;86.11
11499;BME280;5806;48.748;9.278;2024-02-26T02:48:21;99110.78;;;7.35;88.77
11499;BME280;5806;48.748;9.278;2024-02-26T02:50:49;99112.75;;;7.42;88.54
11499;BME280;5806;48.748;9.278;2024-02-26T02:53:16;99115.33;;;7.59;86.15
11499;BME280;5806;48.748;9.278;2024-02-26T02:55:44;99117.23;;;7.61;87.29
11499;BME280;5806;48.748;9.278;2024-02-26T02:58:12;99110.77;;;7.33;87.80
11499;BME280;5806;48.748;9.278;2024-02-26T03:00:39;99113.28;;;7.42;88.08
11499;BME280;5806;48.748;9.278;2024-02-26T03:03:07;99105.69;;;7.44;88.63
11499;BME280;5806;48.748;9.278;2024-02-26T03:05:34;99102.70;;;7.43;89.53
11499;BME280;5806;48.748;9.278;2024-02-26T03:08:01;99099.75;;;7.49;88.18
11499;BME280;5806;48.748;9.278;2024-02-26T03:10:29;99108.05;;;7.33;89.28
11499;BME280;5806;48.748;9.278;2024-02-26T03:12:56;99104.81;;;7.36;88.20
11499;BME280;5806;48.748;9.278;2024-02-26T03:15:24;99105.09;;;7.37;89.67
11499;BME280;5806;48.748;9.278;2024-02-26T03:17:51;99105.07;;;7.34;90.49
11499;BME280;5806;48.748;9.278;2024-02-26T03:20:18;99106.17;;;7.36;90.20
11499;BME280;5806;48.748;9.278;2024-02-26T03:22:46;99112.37;;;7.29;90.88
11499;BME280;5806;48.748;9.278;2024-02-26T03:25:13;99104.39;;;7.54;88.89
11499;BME280;5806;48.748;9.278;2024-02-26T03:27:41;99109.50;;;7.43;89.91
11499;BME280;5806;48.748;9.278;2024-02-26T03:30:09;99107.02;;;7.39;90.92
11499;BME280;5806;48.748;9.278;2024-02-26T03:32:37;99101.28;;;7.38;90.39
11499;BME280;5806;48.748;9.278;2024-02-26T03:35:04;99109.77;;;7.44;89.10
11499;BME280;5806;48.748;9.278;2024-02-26T03:37:33;99106.55;;;7.49;88.90
11499;BME280;5806;48.748;9.278;2024-02-26T03:40:01;99112.80;;;7.50;88.35
11499;BME280;5806;48.748;9.278;2024-02-26T03:42:29;99104.33;;;7.44;90.06
11499;BME280;5806;48.748;9.278;2024-02-26T03:44:56;99103.20;;;7.37;90.92
11499;BME280;5806;48.748;9.278;2024-02-26T03:47:24;99106.17;;;7.36;91.79
11499;BME280;5806;48.748;9.278;2024-02-26T03:49:51;99109.44;;;7.38;89.92
11499;BME280;5806;48.748;9.278;2024-02-26T03:52:19;99105.31;;;7.30;93.28
11499;BME280;5806;48.748;9.278;2024-02-26T03:54:46;99100.14;;;7.31;93.17
11499;BME280;5806;48.748;9.278;2024-02-26T03:57:13;99100.22;;;7.39;92.56
11499;BME280;5806;48.748;9.278;2024-02-26T03:59:41;99109.39;;;7.30;94.10
11499;BME280;5806;48.748;9.278;2024-02-26T04:02:08;99110.72;;;7.25;93.37
11499;BME280;5806;48.748;9.278;2024-02-26T04:04:36;99110.49;;;7.32;95.21
11499;BME280;5806;48.748;9.278;2024-02-26T04:07:03;99115.36;;;7.30;93.92
11499;BME280;5806;48.748;9.278;2024-02-26T04:09:33;99119.66;;;7.23;95.38
11499;BME280;5806;48.748;9.278;2024-02-26T04:12:01;99115.34;;;7.27;95.08
11499;BME280;5806;48.748;9.278;2024-02-26T04:14:29;99116.22;;;7.35;93.31
11499;BME280;5806;48.748;9.278;2024-02-26T04:16:56;99118.73;;;7.44;92.55
11499;BME280;5806;48.748;9.278;2024-02-26T04:19:23;99122.16;;;7.30;94.16
11499;BME280;5806;48.748;9.278;2024-02-26T04:21:51;99126.11;;;7.46;92.10
11499;BME280;5806;48.748;9.278;2024-02-26T04:24:18;99133.81;;;7.23;96.32
11499;BME280;5806;48.748;9.278;2024-02-26T04:26:46;99135.42;;;7.21;96.59
11499;BME280;5806;48.748;9.278;2024-02-26T04:29:13;99143.11;;;7.29;96.14
11499;BME280;5806;48.748;9.278;2024-02-26T04:31:41;99152.92;;;7.33;93.67
11499;BME280;5806;48.748;9.278;2024-02-26T04:34:09;99156.69;;;7.27;95.12
11499;BME280;5806;48.748;9.278;2024-02-26T04:36:36;99153.73;;;7.31;94.80
11499;BME280;5806;48.748;9.278;2024-02-26T04:39:04;99152.03;;;7.25;97.39
11499;BME280;5806;48.748;9.278;2024-02-26T04:41:31;99156.11;;;7.25;97.04
11499;BME280;5806;48.748;9.278;2024-02-26T04:43:58;99155.23;;;7.19;98.43
11499;BME280;5806;48.748;9.278;2024-02-26T04:46:26;99165.73;;;7.35;95.80
11499;BME280;5806;48.748;9.278;2024-02-26T04:48:54;99162.95;;;7.30;97.36
11499;BME280;5806;48.748;9.278;2024-02-26T04:51:22;99168.63;;;7.26;97.07
11499;BME280;5806;48.748;9.278;2024-02-26T04:53:49;99164.76;;;7.19;97.58
11499;BME280;5806;48.748;9.278;2024-02-26T04:56:16;99168.92;;;7.27;97.83
11499;BME280;5806;48.748;9.278;2024-02-26T04:58:44;99174.02;;;7.21;98.91
11499;BME280;5806;48.748;9.278;2024-02-26T05:01:12;99173.13;;;7.13;99.78
11499;BME280;5806;48.748;9.278;2024-02-26T05:03:39;99176.14;;;7.16;99.42
11499;BME280;5806;48.748;9.278;2024-02-26T05:06:07;99169.39;;;7.19;98.99
11499;BME280;5806;48.748;9.278;2024-02-26T05:08:35;99170.52;;;7.23;97.46
11499;BME280;5806;48.748;9.278;2024-02-26T05:11:04;99162.62;;;7.21;96.25
11499;BME280;5806;48.748;9.278;2024-02-26T05:13:33;99165.63;;;7.25;97.96
11499;BME280;5806;48.748;9.278;2024-02-26T05:16:00;99159.23;;;7.41;97.10
11499;BME280;5806;48.748;9.278;2024-02-26T05:18:28;99154.70;;;7.17;98.18
11499;BME280;5806;48.748;9.278;2024-02-26T05:20:56;99167.18;;;7.16;97.61
11499;BME280;5806;48.748;9.278;2024-02-26T05:23:23;99162.45;;;7.35;97.37
11499;BME280;5806;48.748;9.278;2024-02-26T05:25:50;99158.94;;;7.35;97.07
11499;BME280;5806;48.748;9.278;2024-02-26T05:28:18;99157.98;;;7.22;97.69
11499;BME280;5806;48.748;9.278;2024-02-26T05:30:47;99164.97;;;7.13;98.48
11499;BME280;5806;48.748;9.278;2024-02-26T05:33:14;99160.30;;;7.08;100.00
11499;BME280;5806;48.748;9.278;2024-02-26T05:35:41;99160.66;;;7.17;97.99
11499;BME280;5806;48.748;9.278;2024-02-26T05:38:09;99170.52;;;7.23;99.04
11499;BME280;5806;48.748;9.278;2024-02-26T05:40:36;99176.95;;;7.14;98.69
11499;BME280;5806;48.748;9.278;2024-02-26T05:43:04;99174.21;;;7.12;97.51
11499;BME280;5806;48.748;9.278;2024-02-26T05:45:32;99173.78;;;7.25;99.39
11499;BME280;5806;48.748;9.278;2024-02-26T05:48:00;99179.73;;;6.95;100.00
11499;BME280;5806;48.748;9.278;2024-02-26T05:50:27;99187.63;;;7.23;98.97
11499;BME280;5806;48.748;9.278;2024-02-26T05:52:54;99193.53;;;7.15;99.73
11499;BME280;5806;48.748;9.278;2024-02-26T05:55:22;99191.84;;;7.07;100.00
11499;BME280;5806;48.748;9.278;2024-02-26T05:57:49;99195.92;;;7.07;100.00
11499;BME280;5806;48.748;9.278;2024-02-26T06:00:17;99198.45;;;7.16;98.95
11499;BME280;5806;48.748;9.278;2024-02-26T06:02:44;99201.44;;;7.17;98.04
11499;BME280;5806;48.748;9.278;2024-02-26T06:05:12;99201.44;;;7.17;98.10
11499;BME280;5806;48.748;9.278;2024-02-26T06:07:39;99204.62;;;7.09;99.82
11499;BME280;5806;48.748;9.278;2024-02-26T06:10:07;99199.45;;;7.10;100.00
11499;BME280;5806;48.748;9.278;2024-02-26T06:12:37;99206.48;;;7.06;100.00
11499;BME280;5806;48.748;9.278;2024-02-26T06:15:05;99203.77;;;7.06;100.00
11499;BME280;5806;48.748;9.278;2024-02-26T06:17:33;99205.12;;;7.06;100.00
11499;BME280;5806;48.748;9.278;2024-02-26T06:20:00;99202.50;;;7.13;99.79
11499;BME280;5806;48.748;9.278;2024-02-26T06:22:30;99208.61;;;6.99;100.00
11499;BME280;5806;48.748;9.278;2024-02-26T06:24:57;99211.88;;;7.01;100.00
11499;BME280;5806;48.748;9.278;2024-02-26T06:27:25;99218.21;;;7.09;100.00
11499;BME280;5806;48.748;9.278;2024-02-26T06:29:52;99221.61;;;6.97;100.00
11499;BME280;5806;48.748;9.278;2024-02-26T06:32:20;99223.55;;;6.99;100.00
11499;BME280;5806;48.748;9.278;2024-02-26T06:34:49;99220.03;;;7.01;100.00
11499;BME280;5806;48.748;9.278;2024-02-26T06:37:16;99218.84;;;7.16;99.51
11499;BME280;5806;48.748;9.278;2024-02-26T06:39:44;99224.13;;;7.03;99.80
11499;BME280;5806;48.748;9.278;2024-02-26T06:42:11;99228.30;;;7.11;100.00
11499;BME280;5806;48.748;9.278;2024-02-26T06:44:38;99233.95;;;7.04;99.81
11499;BME280;5806;48.748;9.278;2024-02-26T06:47:06;99239.18;;;7.11;100.00
11499;BME280;5806;48.748;9.278;2024-02-26T06:49:33;99246.25;;;7.12;99.81
11499;BME280;5806;48.748;9.278;2024-02-26T06:52:01;99244.31;;;6.86;100.00
11499;BME280;5806;48.748;9.278;2024-02-26T06:54:28;99251.05;;;6.81;100.00
11499;BME280;5806;48.748;9.278;2024-02-26T06:56:56;99260.47;;;6.95;100.00
11499;BME280;5806;48.748;9.278;2024-02-26T06:59:23;99255.61;;;6.99;100.00
11499;BME280;5806;48.748;9.278;2024-02-26T07:01:51;99258.66;;;7.03;100.00
11499;BME280;5806;48.748;9.278;2024-02-26T07:04:18;99258.96;;;7.06;100.00
11499;BME280;5806;48.748;9.278;2024-02-26T07:06:45;99258.71;;;7.08;100.00
11499;BME280;5806;48.748;9.278;2024-02-26T07:09:13;99255.72;;;7.07;100.00
11499;BME280;5806;48.748;9.278;2024-02-26T07:11:42;99257.66;;;7.11;100.00
11499;BME280;5806;48.748;9.278;2024-02-26T07:14:10;99266.41;;;6.92;100.00
11499;BME280;5806;48.748;9.278;2024-02-26T07:16:38;99267.32;;;7.00;100.00
11499;BME280;5806;48.748;9.278;2024-02-26T07:19:05;99264.65;;;7.05;100.00
11499;BME280;5806;48.748;9.278;2024-02-26T07:21:33;99264.47;;;6.90;100.00
11499;BME280;5806;48.748;9.278;2024-02-26T07:24:00;99266.26;;;7.03;100.00
11499;BME280;5806;48.748;9.278;2024-02-26T07:26:28;99265.83;;;7.14;100.00
11499;BME280;5806;48.748;9.278;2024-02-26T07:28:57;99275.06;;;6.89;100.00
11499;BME280;5806;48.748;9.278;2024-02-26T07:31:24;99278.69;;;6.97;100.00
11499;BME280;5806;48.748;9.278;2024-02-26T07:33:52;99281.03;;;7.12;99.37
11499;BME280;5806;48.748;9.278;2024-02-26T07:36:20;99280.16;;;7.04;100.00
11499;BME280;5806;48.748;9.278;2024-02-26T07:38:47;99281.81;;;7.08;99.85
11499;BME280;5806;48.748;9.278;2024-02-26T07:41:15;99281.19;;;7.01;100.00
11499;BME280;5806;48.748;9.278;2024-02-26T07:43:42;99281.96;;;6.75;100.00
11499;BME280;5806;48.748;9.278;2024-02-26T07:46:12;99290.39;;;6.76;100.00
11499;BME280;5806;48.748;9.278;2024-02-26T07:48:39;99289.14;;;7.07;100.00
11499;BME280;5806;48.748;9.278;2024-02-26T07:51:08;99289.89;;;7.00;100.00
11499;BME280;5806;48.748;9.278;2024-02-26T07:53:35;99292.03;;;6.98;100.00
11499;BME280;5806;48.748;9.278;2024-02-26T07:56:03;99300.04;;;7.10;99.29
11499;BME280;5806;48.748;9.278;2024-02-26T07:58:31;99305.81;;;7.13;98.33
11499;BME280;5806;48.748;9.278;2024-02-26T08:00:59;99303.92;;;7.16;96.69
11499;BME280;5806;48.748;9.278;2024-02-26T08:03:27;99316.05;;;7.06;99.62
11499;BME280;5806;48.748;9.278;2024-02-26T08:05:54;99310.36;;;7.08;97.50
11499;BME280;5806;48.748;9.278;2024-02-26T08:08:22;99307.03;;;7.03;98.16
11499;BME280;5806;48.748;9.278;2024-02-26T08:10:50;99311.94;;;7.04;98.54
11499;BME280;5806;48.748;9.278;2024-02-26T08:13:17;99309.80;;;6.84;100.00
11499;BME280;5806;48.748;9.278;2024-02-26T08:15:44;99310.33;;;6.84;100.00
11499;BME280;5806;48.748;9.278;2024-02-26T08:18:12;99310.22;;;6.98;100.00
11499;BME280;5806;48.748;9.278;2024-02-26T08:20:39;99311.28;;;6.94;100.00
11499;BME280;5806;48.748;9.278;2024-02-26T08:23:07;99318.66;;;6.96;100.00
11499;BME280;5806;48.748;9.278;2024-02-26T08:25:34;99311.22;;;6.89;100.00
11499;BME280;5806;48.748;9.278;2024-02-26T08:28:02;99314.83;;;6.95;100.00
11499;BME280;5806;48.748;9.278;2024-02-26T08:30:29;99325.92;;;6.91;100.00
11499;BME280;5806;48.748;9.278;2024-02-26T08:32:57;99320.05;;;6.99;100.00
11499;BME280;5806;48.748;9.278;2024-02-26T08:35:24;99326.50;;;6.95;100.00
11499;BME280;5806;48.748;9.278;2024-02-26T08:37:51;99333.19;;;7.07;100.00
11499;BME280;5806;48.748;9.278;2024-02-26T08:40:19;99330.66;;;7.00;100.00
11499;BME280;5806;48.748;9.278;2024-02-26T08:42:46;99343.17;;;7.01;100.00
11499;BME280;5806;48.748;9.278;2024-02-26T08:45:14;99347.80;;;7.03;100.00
11499;BME280;5806;48.748;9.278;2024-02-26T08:47:41;99343.42;;;7.00;99.90
11499;BME280;5806;48.748;9.278;2024-02-26T08:50:09;99338.77;;;6.98;100.00
11499;BME280;5806;48.748;9.278;2024-02-26T08:52:39;99335.47;;;7.15;100.00
11499;BME280;5806;48.748;9.278;2024-02-26T08:55:07;99345.14;;;7.30;100.00
11499;BME280;5806;48.748;9.278;2024-02-26T08:57:35;99353.08;;;7.12;100.00
11499;BME280;5806;48.748;9.278;2024-02-26T09:00:04;99356.85;;;7.09;100.00
11499;BME280;5806;48.748;9.278;2024-02-26T09:02:32;99355.47;;;7.06;99.19
11499;BME280;5806;48.748;9.278;2024-02-26T09:04:59;99358.73;;;7.08;100.00
11499;BME280;5806;48.748;9.278;2024-02-26T09:07:26;99362.31;;;7.11;99.18
11499;BME280;5806;48.748;9.278;2024-02-26T09:09:54;99372.64;;;7.09;98.65
11499;BME280;5806;48.748;9.278;2024-02-26T09:12:22;99368.00;;;7.10;99.26
11499;BME280;5806;48.748;9.278;2024-02-26T09:14:49;99369.78;;;7.21;100.00
11499;BME280;5806;48.748;9.278;2024-02-26T09:17:17;99366.14;;;7.13;97.29
11499;BME280;5806;48.748;9.278;2024-02-26T09:19:44;99374.27;;;7.10;98.14
11499;BME280;5806;48.748;9.278;2024-02-26T09:22:12;99376.94;;;7.27;97.41
11499;BME280;5806;48.748;9.278;2024-02-26T09:24:39;99378.81;;;7.05;98.63
11499;BME280;5806;48.748;9.278;2024-02-26T09:27:06;99390.61;;;7.13;97.70
11499;BME280;5806;48.748;9.278;2024-02-26T09:29:35;99386.84;;;7.16;97.29
11499;BME280;5806;48.748;9.278;2024-02-26T09:32:03;99387.59;;;7.09;100.00
11499;BME280;5806;48.748;9.278;2024-02-26T09:34:31;99404.86;;;7.01;99.77
11499;BME280;5806;48.748;9.278;2024-02-26T09:37:00;99407.64;;;7.06;99.64
11499;BME280;5806;48.748;9.278;2024-02-26T09:39:27;99403.44;;;7.15;100.00
11499;BME280;5806;48.748;9.278;2024-02-26T09:41:55;99400.72;;;7.15;98.84
11499;BME280;5806;48.748;9.278;2024-02-26T09:44:26;99404.05;;;7.00;100.00
11499;BME280;5806;48.748;9.278;2024-02-26T09:46:57;99409.89;;;7.11;100.00
11499;BME280;5806;48.748;9.278;2024-02-26T09:49:25;99410.17;;;7.12;100.00
11499;BME280;5806;48.748;9.278;2024-02-26T09:51:54;99414.00;;;7.14;99.18
11499;BME280;5806;48.748;9.278;2024-02-26T09:54:24;99418.91;;;7.14;98.04
11499;BME280;5806;48.748;9.278;2024-02-26T09:56:55;99408.90;;;7.17;98.78
11499;BME280;5806;48.748;9.278;2024-02-26T09:59:24;99416.59;;;7.23;99.63
11499;BME280;5806;48.748;9.278;2024-02-26T10:01:53;99424.05;;;7.11;97.50
11499;BME280;5806;48.748;9.278;2024-02-26T10:04:21;99428.30;;;7.04;98.92
11499;BME280;5806;48.748;9.278;2024-02-26T10:06:49;99426.55;;;7.15;99.28
11499;BME280;5806;48.748;9.278;2024-02-26T10:09:17;99429.97;;;7.08;100.00
11499;BME280;5806;48.748;9.278;2024-02-26T10:11:47;99437.64;;;7.11;100.00
11499;BME280;5806;48.748;9.278;2024-02-26T10:14:15;99441.12;;;7.28;99.56
11499;BME280;5806;48.748;9.278;2024-02-26T10:16:43;99433.67;;;7.21;100.00
11499;BME280;5806;48.748;9.278;2024-02-26T10:19:24;99440.31;;;7.30;100.00
11499;BME280;5806;48.748;9.278;2024-02-26T10:21:42;99451.72;;;7.27;99.67
11499;BME280;5806;48.748;9.278;2024-02-26T10:24:14;99454.59;;;7.20;100.00
11499;BME280;5806;48.748;9.278;2024-02-26T10:26:46;99450.58;;;7.23;98.75
11499;BME280;5806;48.748;9.278;2024-02-26T10:29:14;99454.10;;;7.23;100.00
11499;BME280;5806;48.748;9.278;2024-02-26T10:31:45;99457.94;;;7.25;100.00
11499;BME280;5806;48.748;9.278;2024-02-26T10:34:12;99455.59;;;7.31;100.00
11499;BME280;5806;48.748;9.278;2024-02-26T10:36:40;99449.16;;;7.39;100.00
11499;BME280;5806;48.748;9.278;2024-02-26T10:39:12;99452.59;;;7.32;99.87
11499;BME280;5806;48.748;9.278;2024-02-26T10:41:43;99455.42;;;7.40;99.79
11499;BME280;5806;48.748;9.278;2024-02-26T10:44:13;99460.37;;;7.24;100.00
11499;BME280;5806;48.748;9.278;2024-02-26T10:46:41;99457.19;;;7.29;100.00
11499;BME280;5806;48.748;9.278;2024-02-26T10:49:15;99460.00;;;7.37;100.00
11499;BME280;5806;48.748;9.278;2024-02-26T10:51:49;99463.12;;;7.45;99.87
11499;BME280;5806;48.748;9.278;2024-02-26T10:54:16;99468.03;;;7.48;100.00
11499;BME280;5806;48.748;9.278;2024-02-26T10:56:46;99472.97;;;7.51;100.00
11499;BME280;5806;48.748;9.278;2024-02-26T10:59:16;99475.95;;;7.50;100.00
11499;BME280;5806;48.748;9.278;2024-02-26T11:01:48;99481.11;;;7.49;100.00
11499;BME280;5806;48.748;9.278;2024-02-26T11:04:16;99479.72;;;7.46;100.00
11499;BME280;5806;48.748;9.278;2024-02-26T11:06:45;99478.20;;;7.55;99.77
11499;BME280;5806;48.748;9.278;2024-02-26T11:09:15;99490.23;;;7.40;100.00
11499;BME280;5806;48.748;9.278;2024-02-26T11:11:43;99492.02;;;7.51;100.00
11499;BME280;5806;48.748;9.278;2024-02-26T11:14:12;99487.75;;;7.58;99.72
11499;BME280;5806;48.748;9.278;2024-02-26T11:16:40;99492.17;;;7.61;100.00
11499;BME280;5806;48.748;9.278;2024-02-26T11:19:09;99495.55;;;7.49;100.00
11499;BME280;5806;48.748;9.278;2024-02-26T11:21:37;99492.27;;;7.50;100.00
11499;BME280;5806;48.748;9.278;2024-02-26T11:24:17;99497.02;;;7.59;100.00
11499;BME280;5806;48.748;9.278;2024-02-26T11:26:44;99499.98;;;7.58;100.00
11499;BME280;5806;48.748;9.278;2024-02-26T11:29:09;99503.05;;;7.61;100.00
11499;BME280;5806;48.748;9.278;2024-02-26T11:31:38;99500.30;;;7.59;100.00
11499;BME280;5806;48.748;9.278;2024-02-26T11:34:08;99509.85;;;7.61;99.07
11499;BME280;5806;48.748;9.278;2024-02-26T11:36:37;99501.59;;;7.56;100.00
11499;BME280;5806;48.748;9.278;2024-02-26T11:39:06;99509.55;;;7.60;100.00
11499;BME280;5806;48.748;9.278;2024-02-26T11:41:33;99518.50;;;7.77;99.50
11499;BME280;5806;48.748;9.278;2024-02-26T11:44:02;99524.09;;;7.71;100.00
11499;BME280;5806;48.748;9.278;2024-02-26T11:46:32;99529.23;;;7.67;100.00
11499;BME280;5806;48.748;9.278;2024-02-26T11:49:30;99523.59;;;7.74;100.00
11499;BME280;5806;48.748;9.278;2024-02-26T11:51:34;99526.82;;;7.71;100.00
11499;BME280;5806;48.748;9.278;2024-02-26T11:54:02;99532.05;;;7.75;100.00
11499;BME280;5806;48.748;9.278;2024-02-26T11:56:30;99532.91;;;7.78;100.00
11499;BME280;5806;48.748;9.278;2024-02-26T11:59:01;99530.33;;;7.88;99.70
11499;BME280;5806;48.748;9.278;2024-02-26T12:04:21;99529.33;;;7.96;100.00
11499;BME280;5806;48.748;9.278;2024-02-26T12:06:50;99527.02;;;7.86;99.17
11499;BME280;5806;48.748;9.278;2024-02-26T12:09:37;99524.35;;;7.91;99.08
11499;BME280;5806;48.748;9.278;2024-02-26T12:12:07;99531.02;;;8.00;100.00
11499;BME280;5806;48.748;9.278;2024-02-26T12:14:39;99535.24;;;7.91;99.04
11499;BME280;5806;48.748;9.278;2024-02-26T12:17:15;99530.80;;;8.04;100.00
11499;BME280;5806;48.748;9.278;2024-02-26T12:19:37;99530.92;;;8.16;100.00
11499;BME280;5806;48.748;9.278;2024-02-26T12:22:06;99536.02;;;8.08;99.74
11499;BME280;5806;48.748;9.278;2024-02-26T12:24:34;99534.89;;;8.25;100.00
11499;BME280;5806;48.748;9.278;2024-02-26T12:27:01;99537.17;;;8.14;100.00
11499;BME280;5806;48.748;9.278;2024-02-26T12:29:29;99547.13;;;8.04;100.00
11499;BME280;5806;48.748;9.278;2024-02-26T12:31:57;99546.44;;;8.13;100.00
11499;BME280;5806;48.748;9.278;2024-02-26T12:34:24;99551.17;;;8.23;100.00
11499;BME280;5806;48.748;9.278;2024-02-26T12:36:54;99557.05;;;8.15;100.00
11499;BME280;5806;48.748;9.278;2024-02-26T12:39:21;99565.61;;;8.02;100.00
11499;BME280;5806;48.748;9.278;2024-02-26T12:41:49;99562.22;;;8.14;100.00
11499;BME280;5806;48.748;9.278;2024-02-26T12:44:17;99570.19;;;8.20;100.00
11499;BME280;5806;48.748;9.278;2024-02-26T12:46:44;99577.36;;;8.05;100.00
11499;BME280;5806;48.748;9.278;2024-02-26T12:49:15;99583.33;;;8.04;100.00
11499;BME280;5806;48.748;9.278;2024-02-26T12:51:46;99585.16;;;8.20;100.00
11499;BME280;5806;48.748;9.278;2024-02-26T12:54:14;99585.75;;;8.01;100.00
11499;BME280;5806;48.748;9.278;2024-02-26T12:56:42;99592.64;;;8.08;99.78
11499;BME280;5806;48.748;9.278;2024-02-26T12:59:09;99600.56;;;8.10;100.00
11499;BME280;5806;48.748;9.278;2024-02-26T13:01:37;99600.11;;;7.96;100.00
11499;BME280;5806;48.748;9.278;2024-02-26T13:04:06;99606.23;;;8.06;100.00
11499;BME280;5806;48.748;9.278;2024-02-26T13:06:33;99610.59;;;8.07;99.61
11499;BME280;5806;48.748;9.278;2024-02-26T13:09:01;99608.84;;;8.17;100.00
11499;BME280;5806;48.748;9.278;2024-02-26T13:11:29;99614.13;;;8.24;100.00
11499;BME280;5806;48.748;9.278;2024-02-26T13:13:58;99621.49;;;8.26;100.00
11499;BME280;5806;48.748;9.278;2024-02-26T13:16:25;99620.94;;;8.24;100.00
11499;BME280;5806;48.748;9.278;2024-02-26T13:18:54;99625.13;;;8.15;99.26
11499;BME280;5806;48.748;9.278;2024-02-26T13:21:21;99626.97;;;8.28;99.00
11499;BME280;5806;48.748;9.278;2024-02-26T13:23:52;99633.92;;;8.38;100.00